Barrow: Past 24 Hour Conditions

 

Hall Beach Airport

01:00 PM EST 24 November 2014
This table is a summary of hourly weather conditions for the past 24 hours.
Date / Time
(EST)
Wind(knots) Conditions Visibility(km) Pressure(kPa) Air tempC) Relative humidity(%) Dew pointC) Wind Chill
24 November 2014
13:00 NW 21 Light Snow 5 99.6 -21 84 -23 -35
12:00 NW 20 Light Snow 6 99.6 -21 83 -23 -35
11:00 NW 20 Light Snow 6 99.6 -20 83 -23 -34
10:00 NW 22 Light Snow 2 99.6 -20 84 -22 -34
9:00 NW 23 Blowing Snow 2 99.6 -20 84 -22 -35
8:00 NW 21 Ice Crystals 3 99.7 -21 84 -23 -35
7:00 NW 23 Ice Crystals 2 99.7 -21 84 -23 -36
6:00 NW 20 Mist 3 99.7 -21 84 -23 -35
5:00 NW 21 gust 26 Mist 2 99.6 -20 85 -22 -34
4:00 NW 22 Mist 3 99.6 -20 85 -22 -35
3:00 NW 17 Mainly Clear 11 99.6 -22 83 -24 -35
2:00 NW 18 Clear 11 99.6 -23 83 -25 -37
1:00 NW 18 Mist 10 99.6 -24 83 -26 -38
0:00 NW 16 Light Snow 8 99.6 -25 82 -27 -39
23 November 2014
23:00 NW 15 Clear 16 99.6 -26 81 -29 -40
22:00 NW 16 Clear 16 99.6 -26 82 -28 -40
21:00 NW 14 Light Snow 13 99.6 -26 81 -29 -40
20:00 NW 12 Light Snow 16 99.7 -25 82 -28 -38
19:00 NW 12 Ice Crystals 16 99.7 -22 82 -24 -34
18:00 NNW 13 Drifting Snow 16 99.7 -19 83 -22 -31
17:00 NNW 11 Light Snow 24 99.7 -18 85 -20 -28
16:00 NW 10 Light Snow 19 99.7 -18 86 -19 -27
15:00 NNW 11 Light Snow 16 99.7 -17 86 -19 -27
14:00 NNW 12 Light Snow 6 99.7 -16 86 -18 -26
13:00 NNW 11 Light Snow 5 99.7 -16 88 -18 -25
 
Map of Arctic - Eastern Arctic marine weather areas Baker Lake Airport Chesterfield Inlet Airport Coral Harbour Airport Gjoa Haven Airport Kugaaruk Airport Rankin Inlet Airport Shepherd Bay Airport Whale Cove Airport Arctic Bay Brevoort Island Qikiqtarjuaq Airport Cape Dorset Airport Cape Dyer Cape Hooper Clyde Airport Grise Fiord Airport Hall Beach Airport Igloolik Airport Iqaluit Airport Longstaff Bluff Pangnirtung Airport Pond Inlet Airport Repulse Bay Airport Resolute Airport Resolution Island Rowley Island Airport Taloyoak Airport Wager Bay Akulivik Airport Ivujivik Airport Puvirnituq Airport Kangiqsujuaq Airport Kangirsuk Airport Quaqtaq Airport Tasiujaq Airport Cape Kakkiviak Cape Kiglapait Nain Airport Saglek Cape Mercy Kimmirut Airport Aupaluk Airport Salluit Airport Kangiqsualujjuaq Airport Fort Ross
Legend: buoyBuoy land stationLand Station